Berwyn, New York
Current Conditions -  °F | °C
As of 2:54 PM on Thursday 18 Dec 2014 (Local Time) from KSYR Reporting Station
Overcast Overcast  
Wind Chill: 23°   Ceiling: 1700
Heat Index: 32°   Visibility: 10mi
Dew Point: 27°   Wind: 13mph
Humidity: 82%   Direction: 290°WNW
Pressure: 30"   Gusts: NA
Location:  42.8894°N, 76.1084°W
Report Text: KSYR 181954Z 29011KT 10SM OVC017 00/M03 A3000 RMK AO2 SNE1857 SLP160 P0000 T00001028
Loading
Personal Weather Stations






























Interactive Weather Map New forecast layout! Learn more

10-Day Weather Forecast

Advertisements
Track Severe Weather on mobile